sensor_id;sensor_type;location;lat;lon;timestamp;P1;durP1;ratioP1;P2;durP2;ratioP2
40755;SDS011;26461;45.630;9.418;2023-05-15T00:00:14;5.65;;;2.85;;
40755;SDS011;26461;45.630;9.418;2023-05-15T00:03:38;5.88;;;2.30;;
40755;SDS011;26461;45.630;9.418;2023-05-15T00:06:48;4.22;;;1.70;;
40755;SDS011;26461;45.630;9.418;2023-05-15T00:10:02;5.43;;;2.45;;
40755;SDS011;26461;45.630;9.418;2023-05-15T00:13:18;4.90;;;2.22;;
40755;SDS011;26461;45.630;9.418;2023-05-15T00:16:34;5.80;;;2.13;;
40755;SDS011;26461;45.630;9.418;2023-05-15T00:19:57;5.65;;;2.25;;
40755;SDS011;26461;45.630;9.418;2023-05-15T00:23:19;6.53;;;2.90;;
40755;SDS011;26461;45.630;9.418;2023-05-15T00:26:36;5.47;;;2.55;;
40755;SDS011;26461;45.630;9.418;2023-05-15T00:29:50;4.32;;;1.77;;
40755;SDS011;26461;45.630;9.418;2023-05-15T00:33:11;7.25;;;1.35;;
40755;SDS011;26461;45.630;9.418;2023-05-15T00:36:32;5.00;;;1.83;;
40755;SDS011;26461;45.630;9.418;2023-05-15T00:39:45;4.50;;;2.22;;
40755;SDS011;26461;45.630;9.418;2023-05-15T00:43:01;6.20;;;1.35;;
40755;SDS011;26461;45.630;9.418;2023-05-15T00:46:18;7.18;;;3.00;;
40755;SDS011;26461;45.630;9.418;2023-05-15T00:49:35;11.68;;;2.72;;
40755;SDS011;26461;45.630;9.418;2023-05-15T00:52:56;2.78;;;1.10;;
40755;SDS011;26461;45.630;9.418;2023-05-15T00:56:13;8.13;;;1.85;;
40755;SDS011;26461;45.630;9.418;2023-05-15T00:59:27;6.57;;;2.22;;
40755;SDS011;26461;45.630;9.418;2023-05-15T01:02:44;5.45;;;2.47;;
40755;SDS011;26461;45.630;9.418;2023-05-15T01:06:01;3.78;;;1.60;;
40755;SDS011;26461;45.630;9.418;2023-05-15T01:09:22;5.30;;;1.50;;
40755;SDS011;26461;45.630;9.418;2023-05-15T01:12:28;5.95;;;2.13;;
40755;SDS011;26461;45.630;9.418;2023-05-15T01:15:48;7.55;;;3.42;;
40755;SDS011;26461;45.630;9.418;2023-05-15T01:19:04;7.05;;;3.63;;
40755;SDS011;26461;45.630;9.418;2023-05-15T01:22:35;5.55;;;3.05;;
40755;SDS011;26461;45.630;9.418;2023-05-15T01:33:26;5.65;;;1.50;;
40755;SDS011;26461;45.630;9.418;2023-05-15T01:36:54;9.32;;;1.80;;
40755;SDS011;26461;45.630;9.418;2023-05-15T01:40:11;5.03;;;2.63;;
40755;SDS011;26461;45.630;9.418;2023-05-15T01:43:30;8.25;;;2.55;;
40755;SDS011;26461;45.630;9.418;2023-05-15T01:46:55;3.53;;;2.00;;
40755;SDS011;26461;45.630;9.418;2023-05-15T01:50:21;7.57;;;1.80;;
40755;SDS011;26461;45.630;9.418;2023-05-15T01:53:29;5.70;;;2.33;;
40755;SDS011;26461;45.630;9.418;2023-05-15T01:56:45;7.45;;;1.83;;
40755;SDS011;26461;45.630;9.418;2023-05-15T02:00:11;2.65;;;0.70;;
40755;SDS011;26461;45.630;9.418;2023-05-15T02:03:29;4.53;;;1.42;;
40755;SDS011;26461;45.630;9.418;2023-05-15T02:06:49;3.60;;;1.02;;
40755;SDS011;26461;45.630;9.418;2023-05-15T02:10:07;6.93;;;2.83;;
40755;SDS011;26461;45.630;9.418;2023-05-15T02:13:26;6.20;;;1.77;;
40755;SDS011;26461;45.630;9.418;2023-05-15T02:16:46;3.80;;;1.52;;
40755;SDS011;26461;45.630;9.418;2023-05-15T02:20:04;3.83;;;1.35;;
40755;SDS011;26461;45.630;9.418;2023-05-15T02:23:17;4.45;;;1.25;;
40755;SDS011;26461;45.630;9.418;2023-05-15T02:30:27;5.47;;;1.60;;
40755;SDS011;26461;45.630;9.418;2023-05-15T02:34:00;4.43;;;1.00;;
40755;SDS011;26461;45.630;9.418;2023-05-15T02:37:33;3.50;;;1.35;;
40755;SDS011;26461;45.630;9.418;2023-05-15T02:40:55;2.60;;;0.60;;
40755;SDS011;26461;45.630;9.418;2023-05-15T02:44:09;2.00;;;0.60;;
40755;SDS011;26461;45.630;9.418;2023-05-15T02:47:17;4.78;;;1.10;;
40755;SDS011;26461;45.630;9.418;2023-05-15T02:50:41;6.38;;;1.25;;
40755;SDS011;26461;45.630;9.418;2023-05-15T02:54:01;4.45;;;0.90;;
40755;SDS011;26461;45.630;9.418;2023-05-15T02:57:12;5.72;;;1.25;;
40755;SDS011;26461;45.630;9.418;2023-05-15T03:00:25;3.38;;;0.90;;
40755;SDS011;26461;45.630;9.418;2023-05-15T03:03:30;4.88;;;0.90;;
40755;SDS011;26461;45.630;9.418;2023-05-15T03:06:39;2.88;;;0.75;;
40755;SDS011;26461;45.630;9.418;2023-05-15T03:09:57;2.60;;;0.80;;
40755;SDS011;26461;45.630;9.418;2023-05-15T03:13:15;3.53;;;0.77;;
40755;SDS011;26461;45.630;9.418;2023-05-15T03:16:37;5.78;;;1.00;;
40755;SDS011;26461;45.630;9.418;2023-05-15T03:19:58;2.50;;;0.60;;
40755;SDS011;26461;45.630;9.418;2023-05-15T03:23:20;2.28;;;0.70;;
40755;SDS011;26461;45.630;9.418;2023-05-15T03:26:35;2.97;;;1.00;;
40755;SDS011;26461;45.630;9.418;2023-05-15T03:29:56;6.55;;;1.85;;
40755;SDS011;26461;45.630;9.418;2023-05-15T03:33:08;5.35;;;1.02;;
40755;SDS011;26461;45.630;9.418;2023-05-15T03:36:25;2.00;;;0.50;;
40755;SDS011;26461;45.630;9.418;2023-05-15T03:39:40;3.30;;;1.23;;
40755;SDS011;26461;45.630;9.418;2023-05-15T03:42:50;5.50;;;0.93;;
40755;SDS011;26461;45.630;9.418;2023-05-15T03:45:57;3.95;;;1.50;;
40755;SDS011;26461;45.630;9.418;2023-05-15T03:49:08;7.82;;;1.35;;
40755;SDS011;26461;45.630;9.418;2023-05-15T03:52:26;4.40;;;1.70;;
40755;SDS011;26461;45.630;9.418;2023-05-15T03:55:48;6.63;;;1.85;;
40755;SDS011;26461;45.630;9.418;2023-05-15T03:58:57;3.72;;;1.55;;
40755;SDS011;26461;45.630;9.418;2023-05-15T04:02:14;5.13;;;2.03;;
40755;SDS011;26461;45.630;9.418;2023-05-15T04:05:33;7.13;;;2.80;;
40755;SDS011;26461;45.630;9.418;2023-05-15T04:08:43;4.30;;;1.58;;
40755;SDS011;26461;45.630;9.418;2023-05-15T04:11:58;8.40;;;2.30;;
40755;SDS011;26461;45.630;9.418;2023-05-15T04:15:17;3.15;;;1.38;;
40755;SDS011;26461;45.630;9.418;2023-05-15T04:18:40;3.65;;;1.00;;
40755;SDS011;26461;45.630;9.418;2023-05-15T04:21:57;6.25;;;2.90;;
40755;SDS011;26461;45.630;9.418;2023-05-15T04:25:18;4.40;;;1.08;;
40755;SDS011;26461;45.630;9.418;2023-05-15T04:28:30;4.88;;;1.02;;
40755;SDS011;26461;45.630;9.418;2023-05-15T04:31:55;3.50;;;1.60;;
40755;SDS011;26461;45.630;9.418;2023-05-15T04:35:13;4.05;;;1.05;;
40755;SDS011;26461;45.630;9.418;2023-05-15T04:38:26;7.85;;;3.30;;
40755;SDS011;26461;45.630;9.418;2023-05-15T04:41:40;5.43;;;1.80;;
40755;SDS011;26461;45.630;9.418;2023-05-15T04:44:56;4.32;;;1.42;;
40755;SDS011;26461;45.630;9.418;2023-05-15T04:48:16;3.55;;;1.02;;
40755;SDS011;26461;45.630;9.418;2023-05-15T04:51:28;6.05;;;2.40;;
40755;SDS011;26461;45.630;9.418;2023-05-15T04:54:45;4.57;;;2.30;;
40755;SDS011;26461;45.630;9.418;2023-05-15T04:57:59;7.00;;;3.28;;
40755;SDS011;26461;45.630;9.418;2023-05-15T05:01:12;4.25;;;1.80;;
40755;SDS011;26461;45.630;9.418;2023-05-15T05:04:28;5.47;;;1.20;;
40755;SDS011;26461;45.630;9.418;2023-05-15T05:07:36;5.63;;;1.25;;
40755;SDS011;26461;45.630;9.418;2023-05-15T05:11:00;4.05;;;2.03;;
40755;SDS011;26461;45.630;9.418;2023-05-15T05:14:16;5.53;;;1.70;;
40755;SDS011;26461;45.630;9.418;2023-05-15T05:17:33;3.95;;;1.55;;
40755;SDS011;26461;45.630;9.418;2023-05-15T05:20:47;4.65;;;1.95;;
40755;SDS011;26461;45.630;9.418;2023-05-15T05:24:18;4.60;;;1.92;;
40755;SDS011;26461;45.630;9.418;2023-05-15T05:27:31;4.53;;;0.60;;
40755;SDS011;26461;45.630;9.418;2023-05-15T05:30:53;4.22;;;1.40;;
40755;SDS011;26461;45.630;9.418;2023-05-15T05:34:01;6.95;;;1.98;;
40755;SDS011;26461;45.630;9.418;2023-05-15T05:37:18;4.00;;;1.33;;
40755;SDS011;26461;45.630;9.418;2023-05-15T05:40:28;3.88;;;1.17;;
40755;SDS011;26461;45.630;9.418;2023-05-15T05:43:56;5.40;;;1.25;;
40755;SDS011;26461;45.630;9.418;2023-05-15T05:47:09;5.13;;;1.38;;
40755;SDS011;26461;45.630;9.418;2023-05-15T05:50:20;5.85;;;1.35;;
40755;SDS011;26461;45.630;9.418;2023-05-15T05:53:34;4.18;;;1.45;;
40755;SDS011;26461;45.630;9.418;2023-05-15T05:56:44;2.47;;;0.95;;
40755;SDS011;26461;45.630;9.418;2023-05-15T06:00:07;9.65;;;0.98;;
40755;SDS011;26461;45.630;9.418;2023-05-15T06:03:22;5.93;;;1.30;;
40755;SDS011;26461;45.630;9.418;2023-05-15T06:06:41;5.30;;;0.60;;
40755;SDS011;26461;45.630;9.418;2023-05-15T06:09:54;3.38;;;0.82;;
40755;SDS011;26461;45.630;9.418;2023-05-15T06:13:10;6.30;;;0.70;;
40755;SDS011;26461;45.630;9.418;2023-05-15T06:16:25;5.00;;;1.42;;
40755;SDS011;26461;45.630;9.418;2023-05-15T06:19:36;4.53;;;0.50;;
40755;SDS011;26461;45.630;9.418;2023-05-15T06:22:50;3.55;;;0.82;;
40755;SDS011;26461;45.630;9.418;2023-05-15T06:26:00;3.40;;;1.02;;
40755;SDS011;26461;45.630;9.418;2023-05-15T06:29:13;3.40;;;1.08;;
40755;SDS011;26461;45.630;9.418;2023-05-15T06:32:24;4.28;;;1.05;;
40755;SDS011;26461;45.630;9.418;2023-05-15T06:35:38;2.70;;;0.80;;
40755;SDS011;26461;45.630;9.418;2023-05-15T06:38:48;3.25;;;0.77;;
40755;SDS011;26461;45.630;9.418;2023-05-15T06:41:53;2.70;;;0.88;;
40755;SDS011;26461;45.630;9.418;2023-05-15T06:45:09;2.80;;;0.90;;
40755;SDS011;26461;45.630;9.418;2023-05-15T06:48:24;3.35;;;0.80;;
40755;SDS011;26461;45.630;9.418;2023-05-15T06:51:39;4.13;;;0.80;;
40755;SDS011;26461;45.630;9.418;2023-05-15T06:54:50;4.53;;;1.48;;
40755;SDS011;26461;45.630;9.418;2023-05-15T06:57:55;4.00;;;1.08;;
40755;SDS011;26461;45.630;9.418;2023-05-15T07:01:13;4.20;;;0.70;;
40755;SDS011;26461;45.630;9.418;2023-05-15T07:04:29;3.72;;;0.70;;
40755;SDS011;26461;45.630;9.418;2023-05-15T07:07:40;4.82;;;1.00;;
40755;SDS011;26461;45.630;9.418;2023-05-15T07:10:52;2.45;;;0.55;;
40755;SDS011;26461;45.630;9.418;2023-05-15T07:14:09;3.10;;;0.93;;
40755;SDS011;26461;45.630;9.418;2023-05-15T07:17:19;2.30;;;0.50;;
40755;SDS011;26461;45.630;9.418;2023-05-15T07:20:36;7.35;;;1.88;;
40755;SDS011;26461;45.630;9.418;2023-05-15T07:23:54;4.97;;;0.60;;
40755;SDS011;26461;45.630;9.418;2023-05-15T07:27:14;4.35;;;1.35;;
40755;SDS011;26461;45.630;9.418;2023-05-15T07:30:34;4.78;;;0.80;;
40755;SDS011;26461;45.630;9.418;2023-05-15T07:33:47;3.58;;;0.73;;
40755;SDS011;26461;45.630;9.418;2023-05-15T07:37:08;2.00;;;0.50;;
40755;SDS011;26461;45.630;9.418;2023-05-15T07:40:23;4.10;;;1.27;;
40755;SDS011;26461;45.630;9.418;2023-05-15T07:43:34;2.63;;;0.80;;
40755;SDS011;26461;45.630;9.418;2023-05-15T07:46:50;3.42;;;0.60;;
40755;SDS011;26461;45.630;9.418;2023-05-15T07:50:03;2.80;;;0.43;;
40755;SDS011;26461;45.630;9.418;2023-05-15T07:53:22;3.97;;;0.77;;
40755;SDS011;26461;45.630;9.418;2023-05-15T07:56:35;2.72;;;0.88;;
40755;SDS011;26461;45.630;9.418;2023-05-15T07:59:52;2.85;;;0.60;;
40755;SDS011;26461;45.630;9.418;2023-05-15T08:03:18;3.28;;;0.98;;
40755;SDS011;26461;45.630;9.418;2023-05-15T08:06:34;4.25;;;1.20;;
40755;SDS011;26461;45.630;9.418;2023-05-15T08:09:43;3.15;;;0.73;;
40755;SDS011;26461;45.630;9.418;2023-05-15T08:12:48;6.97;;;0.80;;
40755;SDS011;26461;45.630;9.418;2023-05-15T08:16:02;2.40;;;0.50;;
40755;SDS011;26461;45.630;9.418;2023-05-15T08:19:17;2.47;;;0.65;;
40755;SDS011;26461;45.630;9.418;2023-05-15T08:22:32;3.58;;;0.65;;
40755;SDS011;26461;45.630;9.418;2023-05-15T08:25:43;2.60;;;0.68;;
40755;SDS011;26461;45.630;9.418;2023-05-15T08:29:02;3.80;;;1.20;;
40755;SDS011;26461;45.630;9.418;2023-05-15T08:32:11;3.28;;;1.52;;
40755;SDS011;26461;45.630;9.418;2023-05-15T08:35:31;2.85;;;0.70;;
40755;SDS011;26461;45.630;9.418;2023-05-15T08:38:45;3.25;;;0.70;;
40755;SDS011;26461;45.630;9.418;2023-05-15T08:45:25;3.15;;;0.60;;
40755;SDS011;26461;45.630;9.418;2023-05-15T08:48:40;4.10;;;1.40;;
40755;SDS011;26461;45.630;9.418;2023-05-15T08:51:58;3.90;;;0.93;;
40755;SDS011;26461;45.630;9.418;2023-05-15T08:55:12;3.10;;;0.85;;
40755;SDS011;26461;45.630;9.418;2023-05-15T08:58:22;2.95;;;0.77;;
40755;SDS011;26461;45.630;9.418;2023-05-15T09:01:37;5.10;;;1.65;;
40755;SDS011;26461;45.630;9.418;2023-05-15T09:04:54;7.38;;;1.45;;
40755;SDS011;26461;45.630;9.418;2023-05-15T09:08:11;3.03;;;0.82;;
40755;SDS011;26461;45.630;9.418;2023-05-15T09:11:19;3.33;;;0.70;;
40755;SDS011;26461;45.630;9.418;2023-05-15T09:14:41;3.55;;;0.90;;
40755;SDS011;26461;45.630;9.418;2023-05-15T09:17:55;3.80;;;1.42;;
40755;SDS011;26461;45.630;9.418;2023-05-15T09:21:24;4.13;;;0.98;;
40755;SDS011;26461;45.630;9.418;2023-05-15T09:24:43;4.43;;;0.88;;
40755;SDS011;26461;45.630;9.418;2023-05-15T09:27:59;2.65;;;0.82;;
40755;SDS011;26461;45.630;9.418;2023-05-15T09:31:10;5.30;;;1.55;;
40755;SDS011;26461;45.630;9.418;2023-05-15T09:34:15;5.90;;;2.13;;
40755;SDS011;26461;45.630;9.418;2023-05-15T09:37:29;4.45;;;2.58;;
40755;SDS011;26461;45.630;9.418;2023-05-15T09:40:47;9.90;;;2.05;;
40755;SDS011;26461;45.630;9.418;2023-05-15T09:43:58;9.88;;;3.00;;
40755;SDS011;26461;45.630;9.418;2023-05-15T09:47:06;5.50;;;2.10;;
40755;SDS011;26461;45.630;9.418;2023-05-15T09:50:21;5.97;;;2.33;;
40755;SDS011;26461;45.630;9.418;2023-05-15T09:53:35;3.97;;;1.48;;
40755;SDS011;26461;45.630;9.418;2023-05-15T09:56:50;5.55;;;2.30;;
40755;SDS011;26461;45.630;9.418;2023-05-15T10:00:06;6.90;;;3.78;;
40755;SDS011;26461;45.630;9.418;2023-05-15T10:03:16;7.55;;;3.50;;
40755;SDS011;26461;45.630;9.418;2023-05-15T10:06:48;8.73;;;2.15;;
40755;SDS011;26461;45.630;9.418;2023-05-15T10:09:56;6.47;;;3.08;;
40755;SDS011;26461;45.630;9.418;2023-05-15T10:13:07;3.85;;;2.00;;
40755;SDS011;26461;45.630;9.418;2023-05-15T10:16:22;5.15;;;2.00;;
40755;SDS011;26461;45.630;9.418;2023-05-15T10:19:36;5.00;;;1.63;;
40755;SDS011;26461;45.630;9.418;2023-05-15T10:22:53;4.95;;;1.63;;
40755;SDS011;26461;45.630;9.418;2023-05-15T10:26:06;4.38;;;1.55;;
40755;SDS011;26461;45.630;9.418;2023-05-15T10:29:28;5.00;;;1.90;;
40755;SDS011;26461;45.630;9.418;2023-05-15T10:32:46;5.50;;;2.03;;
40755;SDS011;26461;45.630;9.418;2023-05-15T10:36:01;6.38;;;1.45;;
40755;SDS011;26461;45.630;9.418;2023-05-15T10:39:16;11.80;;;2.55;;
40755;SDS011;26461;45.630;9.418;2023-05-15T10:42:30;4.40;;;1.20;;
40755;SDS011;26461;45.630;9.418;2023-05-15T10:45:47;6.03;;;1.58;;
40755;SDS011;26461;45.630;9.418;2023-05-15T10:48:58;7.07;;;1.33;;
40755;SDS011;26461;45.630;9.418;2023-05-15T10:52:10;4.28;;;2.33;;
40755;SDS011;26461;45.630;9.418;2023-05-15T10:55:24;6.22;;;1.73;;
40755;SDS011;26461;45.630;9.418;2023-05-15T10:58:33;5.55;;;2.70;;
40755;SDS011;26461;45.630;9.418;2023-05-15T11:01:51;3.95;;;2.80;;
40755;SDS011;26461;45.630;9.418;2023-05-15T11:05:06;3.50;;;1.67;;
40755;SDS011;26461;45.630;9.418;2023-05-15T11:08:27;4.20;;;1.90;;
40755;SDS011;26461;45.630;9.418;2023-05-15T11:11:57;5.85;;;2.53;;
40755;SDS011;26461;45.630;9.418;2023-05-15T11:18:17;4.70;;;3.15;;
40755;SDS011;26461;45.630;9.418;2023-05-15T11:21:33;6.80;;;5.43;;
40755;SDS011;26461;45.630;9.418;2023-05-15T11:25:01;6.22;;;3.60;;
40755;SDS011;26461;45.630;9.418;2023-05-15T11:28:22;8.10;;;3.30;;
40755;SDS011;26461;45.630;9.418;2023-05-15T11:31:38;7.75;;;4.18;;
40755;SDS011;26461;45.630;9.418;2023-05-15T11:34:47;5.18;;;2.72;;
40755;SDS011;26461;45.630;9.418;2023-05-15T11:38:02;6.05;;;4.88;;
40755;SDS011;26461;45.630;9.418;2023-05-15T11:41:30;3.50;;;2.00;;
40755;SDS011;26461;45.630;9.418;2023-05-15T11:44:43;6.88;;;2.28;;
40755;SDS011;26461;45.630;9.418;2023-05-15T11:47:59;8.52;;;1.45;;
40755;SDS011;26461;45.630;9.418;2023-05-15T11:54:25;4.18;;;1.70;;
40755;SDS011;26461;45.630;9.418;2023-05-15T11:57:40;8.18;;;2.22;;
40755;SDS011;26461;45.630;9.418;2023-05-15T12:00:56;7.60;;;2.85;;
40755;SDS011;26461;45.630;9.418;2023-05-15T12:04:13;7.90;;;2.20;;
40755;SDS011;26461;45.630;9.418;2023-05-15T12:07:25;4.15;;;2.05;;
40755;SDS011;26461;45.630;9.418;2023-05-15T12:10:39;4.15;;;1.83;;
40755;SDS011;26461;45.630;9.418;2023-05-15T12:13:54;4.70;;;1.35;;
40755;SDS011;26461;45.630;9.418;2023-05-15T12:17:11;5.03;;;1.73;;
40755;SDS011;26461;45.630;9.418;2023-05-15T12:20:26;6.95;;;2.28;;
40755;SDS011;26461;45.630;9.418;2023-05-15T12:23:34;6.35;;;1.73;;
40755;SDS011;26461;45.630;9.418;2023-05-15T12:26:53;3.88;;;1.35;;
40755;SDS011;26461;45.630;9.418;2023-05-15T12:30:07;4.97;;;3.22;;
40755;SDS011;26461;45.630;9.418;2023-05-15T12:33:25;5.50;;;3.25;;
40755;SDS011;26461;45.630;9.418;2023-05-15T12:36:41;4.25;;;2.15;;
40755;SDS011;26461;45.630;9.418;2023-05-15T12:40:07;5.60;;;1.35;;
40755;SDS011;26461;45.630;9.418;2023-05-15T12:43:22;4.35;;;1.90;;
40755;SDS011;26461;45.630;9.418;2023-05-15T12:46:28;4.05;;;0.90;;
40755;SDS011;26461;45.630;9.418;2023-05-15T12:49:46;7.95;;;4.72;;
40755;SDS011;26461;45.630;9.418;2023-05-15T12:52:56;5.40;;;1.95;;
40755;SDS011;26461;45.630;9.418;2023-05-15T12:56:15;3.47;;;1.67;;
40755;SDS011;26461;45.630;9.418;2023-05-15T12:59:23;4.72;;;2.45;;
40755;SDS011;26461;45.630;9.418;2023-05-15T13:02:35;4.07;;;2.30;;
40755;SDS011;26461;45.630;9.418;2023-05-15T13:05:50;5.38;;;2.35;;
40755;SDS011;26461;45.630;9.418;2023-05-15T13:09:10;5.28;;;1.80;;
40755;SDS011;26461;45.630;9.418;2023-05-15T13:12:34;4.85;;;2.50;;
40755;SDS011;26461;45.630;9.418;2023-05-15T13:16:03;3.97;;;1.35;;
40755;SDS011;26461;45.630;9.418;2023-05-15T13:19:19;7.93;;;1.40;;
40755;SDS011;26461;45.630;9.418;2023-05-15T13:22:35;6.60;;;3.20;;
40755;SDS011;26461;45.630;9.418;2023-05-15T13:25:45;8.75;;;2.63;;
40755;SDS011;26461;45.630;9.418;2023-05-15T13:29:05;5.57;;;2.20;;
40755;SDS011;26461;45.630;9.418;2023-05-15T13:32:27;6.03;;;2.50;;
40755;SDS011;26461;45.630;9.418;2023-05-15T13:35:40;7.07;;;2.25;;
40755;SDS011;26461;45.630;9.418;2023-05-15T13:38:57;4.45;;;1.50;;
40755;SDS011;26461;45.630;9.418;2023-05-15T13:42:21;5.65;;;2.17;;
40755;SDS011;26461;45.630;9.418;2023-05-15T13:45:34;4.20;;;1.05;;
40755;SDS011;26461;45.630;9.418;2023-05-15T13:48:49;3.72;;;1.67;;
40755;SDS011;26461;45.630;9.418;2023-05-15T13:52:02;4.07;;;1.02;;
40755;SDS011;26461;45.630;9.418;2023-05-15T13:55:08;3.05;;;1.23;;
40755;SDS011;26461;45.630;9.418;2023-05-15T13:58:19;3.33;;;0.90;;
40755;SDS011;26461;45.630;9.418;2023-05-15T14:01:36;3.58;;;1.48;;
40755;SDS011;26461;45.630;9.418;2023-05-15T14:04:48;5.20;;;1.02;;
40755;SDS011;26461;45.630;9.418;2023-05-15T14:08:01;3.90;;;0.90;;
40755;SDS011;26461;45.630;9.418;2023-05-15T14:11:18;3.92;;;1.60;;
40755;SDS011;26461;45.630;9.418;2023-05-15T14:14:45;3.72;;;0.73;;
40755;SDS011;26461;45.630;9.418;2023-05-15T14:18:18;2.75;;;0.93;;
40755;SDS011;26461;45.630;9.418;2023-05-15T14:21:26;3.50;;;1.23;;
40755;SDS011;26461;45.630;9.418;2023-05-15T14:24:44;3.72;;;0.90;;
40755;SDS011;26461;45.630;9.418;2023-05-15T14:27:59;3.22;;;0.93;;
40755;SDS011;26461;45.630;9.418;2023-05-15T14:31:12;5.70;;;1.45;;
40755;SDS011;26461;45.630;9.418;2023-05-15T14:34:25;2.50;;;0.60;;
40755;SDS011;26461;45.630;9.418;2023-05-15T14:37:39;3.20;;;1.65;;
40755;SDS011;26461;45.630;9.418;2023-05-15T14:40:52;3.60;;;1.23;;
40755;SDS011;26461;45.630;9.418;2023-05-15T14:44:11;4.30;;;0.95;;
40755;SDS011;26461;45.630;9.418;2023-05-15T14:47:25;7.00;;;0.90;;
40755;SDS011;26461;45.630;9.418;2023-05-15T14:50:46;3.75;;;0.98;;
40755;SDS011;26461;45.630;9.418;2023-05-15T14:54:02;4.90;;;1.90;;
40755;SDS011;26461;45.630;9.418;2023-05-15T14:57:15;10.73;;;1.63;;
40755;SDS011;26461;45.630;9.418;2023-05-15T15:00:39;2.28;;;0.60;;
40755;SDS011;26461;45.630;9.418;2023-05-15T15:03:50;5.00;;;0.77;;
40755;SDS011;26461;45.630;9.418;2023-05-15T15:07:03;2.38;;;0.82;;
40755;SDS011;26461;45.630;9.418;2023-05-15T15:10:16;3.75;;;1.50;;
40755;SDS011;26461;45.630;9.418;2023-05-15T15:13:31;5.05;;;1.00;;
40755;SDS011;26461;45.630;9.418;2023-05-15T15:16:51;2.83;;;0.73;;
40755;SDS011;26461;45.630;9.418;2023-05-15T15:20:06;5.32;;;1.33;;
40755;SDS011;26461;45.630;9.418;2023-05-15T15:23:12;2.80;;;0.88;;
40755;SDS011;26461;45.630;9.418;2023-05-15T15:26:33;3.53;;;0.70;;
40755;SDS011;26461;45.630;9.418;2023-05-15T15:29:50;3.50;;;0.50;;
40755;SDS011;26461;45.630;9.418;2023-05-15T15:33:01;3.15;;;1.35;;
40755;SDS011;26461;45.630;9.418;2023-05-15T15:36:27;4.22;;;1.30;;
40755;SDS011;26461;45.630;9.418;2023-05-15T15:39:44;2.65;;;0.70;;
40755;SDS011;26461;45.630;9.418;2023-05-15T15:42:57;3.90;;;0.85;;
40755;SDS011;26461;45.630;9.418;2023-05-15T15:46:10;4.35;;;0.98;;
40755;SDS011;26461;45.630;9.418;2023-05-15T15:49:23;3.95;;;1.00;;
40755;SDS011;26461;45.630;9.418;2023-05-15T15:52:34;4.15;;;0.70;;
40755;SDS011;26461;45.630;9.418;2023-05-15T15:55:46;2.60;;;0.70;;
40755;SDS011;26461;45.630;9.418;2023-05-15T15:58:58;3.83;;;0.80;;
40755;SDS011;26461;45.630;9.418;2023-05-15T16:02:09;2.88;;;0.73;;
40755;SDS011;26461;45.630;9.418;2023-05-15T16:05:20;2.67;;;1.23;;
40755;SDS011;26461;45.630;9.418;2023-05-15T16:08:28;3.00;;;1.45;;
40755;SDS011;26461;45.630;9.418;2023-05-15T16:11:44;3.65;;;1.27;;
40755;SDS011;26461;45.630;9.418;2023-05-15T16:14:58;3.00;;;0.88;;
40755;SDS011;26461;45.630;9.418;2023-05-15T16:18:16;3.53;;;0.95;;
40755;SDS011;26461;45.630;9.418;2023-05-15T16:21:34;2.25;;;0.60;;
40755;SDS011;26461;45.630;9.418;2023-05-15T16:24:55;3.38;;;1.02;;
40755;SDS011;26461;45.630;9.418;2023-05-15T16:28:07;3.28;;;1.42;;
40755;SDS011;26461;45.630;9.418;2023-05-15T16:31:17;6.30;;;1.10;;
40755;SDS011;26461;45.630;9.418;2023-05-15T16:34:32;5.45;;;1.58;;
40755;SDS011;26461;45.630;9.418;2023-05-15T16:37:37;3.08;;;0.90;;
40755;SDS011;26461;45.630;9.418;2023-05-15T16:40:54;4.18;;;1.25;;
40755;SDS011;26461;45.630;9.418;2023-05-15T16:44:13;5.80;;;0.80;;
40755;SDS011;26461;45.630;9.418;2023-05-15T16:47:31;4.20;;;1.40;;
40755;SDS011;26461;45.630;9.418;2023-05-15T16:50:41;3.90;;;1.08;;
40755;SDS011;26461;45.630;9.418;2023-05-15T16:53:46;3.17;;;1.17;;
40755;SDS011;26461;45.630;9.418;2023-05-15T16:57:07;3.38;;;1.50;;
40755;SDS011;26461;45.630;9.418;2023-05-15T17:00:20;2.60;;;1.00;;
40755;SDS011;26461;45.630;9.418;2023-05-15T17:03:38;6.53;;;1.55;;
40755;SDS011;26461;45.630;9.418;2023-05-15T17:06:49;2.55;;;1.05;;
40755;SDS011;26461;45.630;9.418;2023-05-15T17:10:08;3.65;;;1.10;;
40755;SDS011;26461;45.630;9.418;2023-05-15T17:13:26;4.35;;;0.65;;
40755;SDS011;26461;45.630;9.418;2023-05-15T17:16:42;2.85;;;0.80;;
40755;SDS011;26461;45.630;9.418;2023-05-15T17:19:54;2.88;;;0.90;;
40755;SDS011;26461;45.630;9.418;2023-05-15T17:23:07;2.80;;;0.60;;
40755;SDS011;26461;45.630;9.418;2023-05-15T17:26:25;2.40;;;0.93;;
40755;SDS011;26461;45.630;9.418;2023-05-15T17:29:38;3.65;;;1.25;;
40755;SDS011;26461;45.630;9.418;2023-05-15T17:32:49;3.35;;;1.65;;
40755;SDS011;26461;45.630;9.418;2023-05-15T17:36:02;2.80;;;1.20;;
40755;SDS011;26461;45.630;9.418;2023-05-15T17:39:18;3.35;;;1.50;;
40755;SDS011;26461;45.630;9.418;2023-05-15T17:42:31;3.83;;;1.70;;
40755;SDS011;26461;45.630;9.418;2023-05-15T17:45:47;3.67;;;2.45;;
40755;SDS011;26461;45.630;9.418;2023-05-15T17:48:53;3.47;;;1.52;;
40755;SDS011;26461;45.630;9.418;2023-05-15T17:52:01;5.97;;;2.42;;
40755;SDS011;26461;45.630;9.418;2023-05-15T17:55:11;3.78;;;0.70;;
40755;SDS011;26461;45.630;9.418;2023-05-15T17:58:24;2.55;;;0.63;;
40755;SDS011;26461;45.630;9.418;2023-05-15T18:01:35;3.30;;;0.93;;
40755;SDS011;26461;45.630;9.418;2023-05-15T18:04:53;4.10;;;1.70;;
40755;SDS011;26461;45.630;9.418;2023-05-15T18:08:13;3.13;;;1.02;;
40755;SDS011;26461;45.630;9.418;2023-05-15T18:11:20;5.00;;;1.15;;
40755;SDS011;26461;45.630;9.418;2023-05-15T18:14:30;3.17;;;1.38;;
40755;SDS011;26461;45.630;9.418;2023-05-15T18:17:50;4.70;;;1.20;;
40755;SDS011;26461;45.630;9.418;2023-05-15T18:21:05;5.32;;;1.73;;
40755;SDS011;26461;45.630;9.418;2023-05-15T18:24:18;6.10;;;1.67;;
40755;SDS011;26461;45.630;9.418;2023-05-15T18:27:23;3.60;;;0.90;;
40755;SDS011;26461;45.630;9.418;2023-05-15T18:30:29;2.72;;;1.15;;
40755;SDS011;26461;45.630;9.418;2023-05-15T18:33:43;2.85;;;1.15;;
40755;SDS011;26461;45.630;9.418;2023-05-15T18:36:54;4.88;;;2.45;;
40755;SDS011;26461;45.630;9.418;2023-05-15T18:40:09;7.18;;;2.05;;
40755;SDS011;26461;45.630;9.418;2023-05-15T18:43:23;4.40;;;1.95;;
40755;SDS011;26461;45.630;9.418;2023-05-15T18:46:42;5.18;;;2.03;;
40755;SDS011;26461;45.630;9.418;2023-05-15T18:49:59;9.18;;;2.95;;
40755;SDS011;26461;45.630;9.418;2023-05-15T18:53:13;5.82;;;3.00;;
40755;SDS011;26461;45.630;9.418;2023-05-15T18:56:23;6.75;;;3.25;;
40755;SDS011;26461;45.630;9.418;2023-05-15T18:59:38;5.85;;;2.25;;
40755;SDS011;26461;45.630;9.418;2023-05-15T19:02:49;4.88;;;2.47;;
40755;SDS011;26461;45.630;9.418;2023-05-15T19:06:06;5.72;;;3.45;;
40755;SDS011;26461;45.630;9.418;2023-05-15T19:09:22;4.63;;;2.40;;
40755;SDS011;26461;45.630;9.418;2023-05-15T19:12:33;8.77;;;3.55;;
40755;SDS011;26461;45.630;9.418;2023-05-15T19:15:52;6.65;;;3.40;;
40755;SDS011;26461;45.630;9.418;2023-05-15T19:19:05;9.93;;;4.82;;
40755;SDS011;26461;45.630;9.418;2023-05-15T19:22:17;6.45;;;3.30;;
40755;SDS011;26461;45.630;9.418;2023-05-15T19:25:29;5.60;;;2.30;;
40755;SDS011;26461;45.630;9.418;2023-05-15T19:28:43;3.80;;;2.47;;
40755;SDS011;26461;45.630;9.418;2023-05-15T19:31:48;5.15;;;1.92;;
40755;SDS011;26461;45.630;9.418;2023-05-15T19:35:01;6.35;;;2.45;;
40755;SDS011;26461;45.630;9.418;2023-05-15T19:38:17;8.23;;;3.88;;
40755;SDS011;26461;45.630;9.418;2023-05-15T19:41:27;6.20;;;2.90;;
40755;SDS011;26461;45.630;9.418;2023-05-15T19:44:42;8.18;;;3.50;;
40755;SDS011;26461;45.630;9.418;2023-05-15T19:47:55;5.45;;;3.08;;
40755;SDS011;26461;45.630;9.418;2023-05-15T19:51:04;13.77;;;5.60;;
40755;SDS011;26461;45.630;9.418;2023-05-15T19:54:18;9.02;;;2.53;;
40755;SDS011;26461;45.630;9.418;2023-05-15T19:57:32;5.43;;;1.83;;